Aysenur — ERJR — position and weather

sailwx.info

Track history (hours):
 
Tides and Currents Weather Stations Pressure Air Temp Water Temp Dewpoint Dewpoint Depression Visibility Wind Speed Wind Dir Waves Ship Positions

Aysenur

Last reported at 2014-Dec-10 21:31 UTC. Time now 2014-Dec-23 01:37 UTC.
Position N 37°37' E 026°37'.
Warning: this ship's position is 12 days out of date.

Length 101 m; draft 5 m.

Type: Cargo ship. MMSI: 214181018.

Date/timePositionNaut miles runAvg speedWind from/ knotsBaromVisibWave heightAir tempDewpointWater temp
2014-Dec-10 21:31N 37°37' E 026°37'1210.0
2014-Dec-10 20:16N 37°26' E 026°45'7 9.7
2014-Dec-10 19:33N 37°21' E 026°50'322 8.7
2014-Dec-09 06:21N 34°38' E 032°33'8 9.6
2014-Dec-09 05:33N 34°34' E 032°41'9 9.4
2014-Dec-09 04:33N 34°30' E 032°52'9 9.0
2014-Dec-09 03:33N 34°30' E 033°03'10 9.6
2014-Dec-09 02:33N 34°31' E 033°14'10 9.6
2014-Dec-09 01:33N 34°32' E 033°26'  
2014-Dec-06 11:29N 34°21' E 033°22'9 8.3
2014-Dec-06 10:25N 34°20' E 033°11'7 8.3
2014-Dec-06 09:33N 34°22' E 033°03'8 8.2
2014-Dec-06 08:33N 34°26' E 032°54'9 8.6
2014-Dec-06 07:33N 34°29' E 032°45'9 8.8
2014-Dec-06 06:33N 34°34' E 032°36'9 8.8
2014-Dec-06 05:28N 34°38' E 032°25'316 7.8
2014-Dec-04 13:12N 37°21' E 026°51'18 8.7
2014-Dec-04 11:04N 37°36' E 026°37'4 8.0
2014-Dec-04 10:33N 37°40' E 026°34'  
2014-Dec-01 23:33N 40°58' E 028°54'1 0.7
2014-Dec-01 22:19N 40°58' E 028°54'0 0.0
2014-Dec-01 20:14N 40°58' E 028°54'4 5.4
2014-Dec-01 19:34N 40°59' E 028°59'11 9.8
2014-Dec-01 18:28N 41°09' E 029°03'  
Track history (hours):
 
Tides and Currents Weather Stations Pressure Air Temp Water Temp Dewpoint Dewpoint Depression Visibility Wind Speed Wind Dir Waves Ship Positions

Aysenur

Last reported at 2014-Dec-10 21:31 UTC. Time now 2014-Dec-23 01:37 UTC.
Position N 37°37' E 026°37'.
Warning: this ship's position is 12 days out of date.

Length 101 m; draft 5 m.

Type: Cargo ship. MMSI: 214181018.

Date/timePositionNaut miles runAvg speedWind from/ knotsBaromVisibWave heightAir tempDewpointWater temp
2014-Dec-10 21:31N 37°37' E 026°37'1210.0
2014-Dec-10 20:16N 37°26' E 026°45'7 9.7
2014-Dec-10 19:33N 37°21' E 026°50'322 8.7
2014-Dec-09 06:21N 34°38' E 032°33'8 9.6
2014-Dec-09 05:33N 34°34' E 032°41'9 9.4
2014-Dec-09 04:33N 34°30' E 032°52'9 9.0
2014-Dec-09 03:33N 34°30' E 033°03'10 9.6
2014-Dec-09 02:33N 34°31' E 033°14'10 9.6
2014-Dec-09 01:33N 34°32' E 033°26'  
2014-Dec-06 11:29N 34°21' E 033°22'9 8.3
2014-Dec-06 10:25N 34°20' E 033°11'7 8.3
2014-Dec-06 09:33N 34°22' E 033°03'8 8.2
2014-Dec-06 08:33N 34°26' E 032°54'9 8.6
2014-Dec-06 07:33N 34°29' E 032°45'9 8.8
2014-Dec-06 06:33N 34°34' E 032°36'9 8.8
2014-Dec-06 05:28N 34°38' E 032°25'316 7.8
2014-Dec-04 13:12N 37°21' E 026°51'18 8.7
2014-Dec-04 11:04N 37°36' E 026°37'4 8.0
2014-Dec-04 10:33N 37°40' E 026°34'  
2014-Dec-01 23:33N 40°58' E 028°54'1 0.7
2014-Dec-01 22:19N 40°58' E 028°54'0 0.0
2014-Dec-01 20:14N 40°58' E 028°54'4 5.4
2014-Dec-01 19:34N 40°59' E 028°59'11 9.8
2014-Dec-01 18:28N 41°09' E 029°03'  

Dump ship's entire track history